Fairchance, Pennsylvania
Current Conditions -  °F | °C
As of 10:53 AM on Friday 31 Oct 2014 (Local Time) from KMGW Reporting Station
Overcast Overcast  
Wind Chill: 47°   Ceiling: 4600
Heat Index: 47°   Visibility: 10mi
Dew Point: 35°   Wind: 0mph
Humidity: 63%   Direction: NA
Pressure: 29.95"   Gusts: NA
Location:  39.82°N, 79.75°W
Report Text: KMGW 311453Z 00000KT 10SM OVC046 08/02 A2995 RMK AO2 SLP144 T00830017 58006
Loading
Personal Weather Stations






























Interactive Weather Map New forecast layout! Learn more

10-Day Weather Forecast

Advertisements
Track Severe Weather on mobile